Connell, Washington
Current Conditions -  °F | °C
As of 9:53 PM on Wednesday 28 Jan 2015 (Local Time) from KPSC Reporting Station
Overcast Overcast  
Wind Chill: 33°   Ceiling: 1300
Heat Index: 38°   Visibility: 10mi
Dew Point: 35°   Wind: 6mph
Humidity: 89%   Direction: 310°NW
Pressure: 30.5"   Gusts: NA
Location:  46.66°N, 118.86°W
Report Text: KPSC 290553Z 31005KT 10SM OVC013 03/02 A3050 RMK AO2 SLP332 T00330017 10039 20033 51006 $
Loading
Personal Weather Stations






























Interactive Weather Map New forecast layout! Learn more

10-Day Weather Forecast

Advertisements
Track Severe Weather on mobile